createdAt,value
2022-08-30T00:01:06.696Z,12.10
2022-08-30T00:03:42.834Z,9.50
2022-08-30T00:06:16.492Z,9.60
2022-08-30T00:08:50.349Z,11.30
2022-08-30T00:11:27.218Z,11.50
2022-08-30T00:14:00.011Z,11.00
2022-08-30T00:16:32.254Z,10.40
2022-08-30T00:19:05.028Z,10.00
2022-08-30T00:21:37.147Z,11.40
2022-08-30T00:24:09.434Z,10.20
2022-08-30T00:26:41.630Z,10.50
2022-08-30T00:29:14.135Z,10.50
2022-08-30T00:31:46.294Z,11.90
2022-08-30T00:34:18.530Z,12.00
2022-08-30T00:36:50.759Z,10.80
2022-08-30T00:39:22.942Z,13.00
2022-08-30T00:41:55.110Z,10.80
2022-08-30T00:44:27.489Z,9.30
2022-08-30T00:46:59.798Z,12.10
2022-08-30T00:49:34.209Z,11.00
2022-08-30T00:52:08.019Z,10.20
2022-08-30T00:54:41.281Z,11.50
2022-08-30T00:57:16.154Z,10.40
2022-08-30T00:59:50.990Z,11.00
2022-08-30T01:02:25.043Z,11.10
2022-08-30T01:04:57.873Z,11.90
2022-08-30T01:07:30.128Z,9.30
2022-08-30T01:10:02.365Z,11.20
2022-08-30T01:12:38.020Z,9.90
2022-08-30T01:15:14.548Z,10.40
2022-08-30T01:17:49.047Z,10.50
2022-08-30T01:20:31.153Z,11.30
2022-08-30T01:23:12.647Z,9.30
2022-08-30T01:25:46.564Z,10.30
2022-08-30T01:28:22.212Z,10.00
2022-08-30T01:30:55.033Z,9.90
2022-08-30T01:33:27.604Z,10.20
2022-08-30T01:36:06.070Z,10.80
2022-08-30T01:38:43.233Z,10.40
2022-08-30T01:41:18.092Z,10.90
2022-08-30T01:43:51.280Z,11.50
2022-08-30T01:46:25.264Z,9.90
2022-08-30T01:48:59.722Z,11.80
2022-08-30T01:51:32.908Z,9.30
2022-08-30T01:54:05.543Z,10.00
2022-08-30T01:56:37.719Z,11.20
2022-08-30T01:59:09.995Z,11.90
2022-08-30T02:01:43.228Z,9.50
2022-08-30T02:04:15.764Z,11.90
2022-08-30T02:06:48.047Z,13.00
2022-08-30T02:09:20.545Z,10.50
2022-08-30T02:11:52.938Z,11.10
2022-08-30T02:14:25.199Z,10.90
2022-08-30T02:16:57.424Z,9.50
2022-08-30T02:19:29.789Z,11.50
2022-08-30T02:22:02.399Z,9.60
2022-08-30T02:24:34.777Z,9.30
2022-08-30T02:27:07.717Z,9.80
2022-08-30T02:29:39.929Z,9.90
2022-08-30T02:32:12.129Z,11.30
2022-08-30T02:34:44.681Z,10.40
2022-08-30T02:37:16.965Z,10.00
2022-08-30T02:39:49.116Z,10.80
2022-08-30T02:42:21.385Z,10.20
2022-08-30T02:44:53.549Z,9.20
2022-08-30T02:47:25.720Z,10.30
2022-08-30T02:49:57.933Z,9.30
2022-08-30T02:52:30.712Z,9.00
2022-08-30T02:55:03.516Z,8.50
2022-08-30T02:57:35.915Z,10.30
2022-08-30T03:00:12.619Z,11.30
2022-08-30T03:02:44.972Z,10.70
2022-08-30T03:05:18.422Z,9.20
2022-08-30T03:07:50.624Z,8.70
2022-08-30T03:10:23.284Z,10.30
2022-08-30T03:12:55.503Z,7.70
2022-08-30T03:15:28.211Z,11.40
2022-08-30T03:18:00.767Z,9.30
2022-08-30T03:20:35.270Z,9.50
2022-08-30T03:23:07.388Z,9.20
2022-08-30T03:25:40.012Z,10.30
2022-08-30T03:28:15.285Z,9.20
2022-08-30T03:30:48.247Z,10.50
2022-08-30T03:33:20.580Z,9.40
2022-08-30T03:35:54.223Z,9.40
2022-08-30T03:38:26.843Z,8.80
2022-08-30T03:40:59.036Z,9.30
2022-08-30T03:43:33.388Z,7.50
2022-08-30T03:46:06.122Z,6.60
2022-08-30T03:48:38.783Z,7.50
2022-08-30T03:51:11.003Z,9.00
2022-08-30T03:53:43.232Z,10.00
2022-08-30T03:56:15.771Z,8.30
2022-08-30T03:58:48.283Z,6.90
2022-08-30T04:01:20.598Z,5.90
2022-08-30T04:03:52.827Z,6.70
2022-08-30T04:06:25.063Z,8.30
2022-08-30T04:08:57.351Z,7.30
2022-08-30T04:11:29.552Z,7.60
2022-08-30T04:14:01.822Z,8.40
2022-08-30T04:16:34.100Z,9.40
2022-08-30T04:19:07.043Z,6.70
2022-08-30T04:21:42.850Z,8.00
2022-08-30T04:24:16.259Z,7.00
2022-08-30T04:26:48.529Z,10.00
2022-08-30T04:29:20.817Z,6.90
2022-08-30T04:31:53.075Z,8.70
2022-08-30T04:34:25.243Z,6.70
2022-08-30T04:36:57.482Z,7.50
2022-08-30T04:39:31.066Z,6.80
2022-08-30T04:42:04.678Z,7.20
2022-08-30T04:44:36.915Z,7.00
2022-08-30T04:47:10.274Z,8.60
2022-08-30T04:49:42.711Z,6.50
2022-08-30T04:52:14.861Z,8.40
2022-08-30T04:54:47.093Z,8.40
2022-08-30T04:57:19.512Z,8.20
2022-08-30T04:59:51.816Z,6.00
2022-08-30T05:02:26.115Z,7.40
2022-08-30T05:05:15.687Z,7.30
2022-08-30T05:07:47.954Z,8.90
2022-08-30T05:10:20.512Z,9.70
2022-08-30T05:12:53.065Z,8.70
2022-08-30T05:15:25.459Z,7.30
2022-08-30T05:17:57.778Z,8.00
2022-08-30T05:20:30.246Z,9.20
2022-08-30T05:23:02.791Z,10.00
2022-08-30T05:25:38.992Z,7.50
2022-08-30T05:28:12.335Z,8.90
2022-08-30T05:30:44.571Z,6.70
2022-08-30T05:33:16.801Z,9.90
2022-08-30T05:35:48.968Z,9.20
2022-08-30T05:38:21.212Z,6.20
2022-08-30T05:40:56.614Z,7.80
2022-08-30T05:43:30.054Z,9.40
2022-08-30T05:46:05.443Z,9.50
2022-08-30T05:48:38.502Z,6.30
2022-08-30T05:51:13.542Z,7.50
2022-08-30T05:53:46.736Z,7.40
2022-08-30T05:56:21.648Z,9.30
2022-08-30T05:58:57.211Z,7.80
2022-08-30T06:01:33.273Z,9.20
2022-08-30T06:04:07.596Z,8.40
2022-08-30T06:06:42.319Z,7.30
2022-08-30T06:09:16.004Z,9.00
2022-08-30T06:11:48.841Z,8.20
2022-08-30T06:14:21.109Z,9.90
2022-08-30T06:16:53.852Z,9.40
2022-08-30T06:19:26.045Z,10.20
2022-08-30T06:21:58.208Z,8.30
2022-08-30T06:24:53.612Z,9.40
2022-08-30T06:27:22.683Z,9.10
2022-08-30T06:29:55.619Z,9.60
2022-08-30T06:32:27.898Z,8.30
2022-08-30T06:35:00.089Z,7.30
2022-08-30T06:37:33.146Z,9.90
2022-08-30T06:40:06.690Z,8.60
2022-08-30T06:42:38.851Z,9.40
2022-08-30T06:45:12.055Z,9.90
2022-08-30T06:47:44.856Z,8.40
2022-08-30T06:50:19.000Z,8.20
2022-08-30T06:52:51.378Z,8.60
2022-08-30T06:55:23.990Z,9.20
2022-08-30T06:57:56.239Z,8.30
2022-08-30T07:00:29.268Z,7.70
2022-08-30T07:03:02.764Z,8.80
2022-08-30T07:05:35.719Z,9.40
2022-08-30T07:08:08.178Z,8.10
2022-08-30T07:10:43.054Z,7.60
2022-08-30T07:13:15.388Z,9.00
2022-08-30T07:15:48.027Z,9.10
2022-08-30T07:18:38.804Z,11.80
2022-08-30T07:21:13.239Z,8.60
2022-08-30T07:23:53.064Z,8.90
2022-08-30T07:26:28.819Z,9.00
2022-08-30T07:29:03.012Z,9.20
2022-08-30T07:31:36.267Z,12.20
2022-08-30T07:34:09.668Z,9.90
2022-08-30T07:36:42.139Z,10.30
2022-08-30T07:39:14.325Z,8.60
2022-08-30T07:41:46.586Z,11.30
2022-08-30T07:44:18.864Z,9.50
2022-08-30T07:46:51.086Z,8.30
2022-08-30T07:49:23.398Z,9.40
2022-08-30T07:51:55.592Z,8.50
2022-08-30T07:54:27.868Z,8.90
2022-08-30T07:57:00.014Z,8.10
2022-08-30T07:59:35.619Z,8.50
2022-08-30T08:02:08.748Z,9.10
2022-08-30T08:04:41.099Z,8.80
2022-08-30T08:07:13.428Z,9.10
2022-08-30T08:09:45.908Z,9.30
2022-08-30T08:12:18.219Z,8.10
2022-08-30T08:14:50.623Z,6.90
2022-08-30T08:17:22.886Z,7.80
2022-08-30T08:19:55.143Z,8.10
2022-08-30T08:22:27.299Z,8.40
2022-08-30T08:24:59.592Z,7.90
2022-08-30T08:27:31.759Z,8.20
2022-08-30T08:30:04.178Z,8.20
2022-08-30T08:32:36.827Z,8.20
2022-08-30T08:35:11.651Z,8.80
2022-08-30T08:37:44.839Z,9.30
2022-08-30T08:40:20.853Z,10.00
2022-08-30T08:43:03.863Z,8.20
2022-08-30T08:45:57.485Z,9.40
2022-08-30T08:48:58.991Z,10.30
2022-08-30T08:51:53.663Z,8.60
2022-08-30T08:54:32.151Z,8.80
2022-08-30T08:57:04.572Z,8.30
2022-08-30T08:59:36.781Z,9.60
2022-08-30T09:02:24.203Z,7.50
2022-08-30T09:05:01.075Z,8.40
2022-08-30T09:07:37.343Z,9.00
2022-08-30T09:10:11.189Z,8.10
2022-08-30T09:12:45.254Z,8.60
2022-08-30T09:15:22.868Z,8.50
2022-08-30T09:17:58.084Z,6.80
2022-08-30T09:20:35.043Z,7.20
2022-08-30T09:23:30.168Z,6.90
2022-08-30T09:26:05.945Z,11.00
2022-08-30T09:28:49.727Z,11.00
2022-08-30T09:31:24.805Z,8.20
2022-08-30T09:34:05.490Z,10.10
2022-08-30T09:36:45.045Z,8.20
2022-08-30T09:39:22.458Z,7.60
2022-08-30T09:42:19.995Z,7.60
2022-08-30T09:44:52.941Z,7.90
2022-08-30T09:47:31.863Z,11.10
2022-08-30T09:50:10.855Z,7.10
2022-08-30T09:53:01.812Z,7.90
2022-08-30T09:55:56.610Z,8.90
2022-08-30T09:58:42.315Z,9.60
2022-08-30T10:01:21.565Z,8.10
2022-08-30T10:04:04.013Z,7.70
2022-08-30T10:06:42.943Z,8.70
2022-08-30T10:09:26.657Z,7.60
2022-08-30T10:12:07.461Z,9.30
2022-08-30T10:14:58.252Z,8.50
2022-08-30T10:17:49.463Z,7.70
2022-08-30T10:20:31.277Z,8.50
2022-08-30T10:23:10.860Z,7.00
2022-08-30T10:25:46.742Z,7.90
2022-08-30T10:28:28.750Z,7.50
2022-08-30T10:31:04.695Z,6.40
2022-08-30T10:33:43.520Z,7.80
2022-08-30T10:36:18.185Z,8.40
2022-08-30T10:38:54.958Z,7.80
2022-08-30T10:41:35.685Z,8.20
2022-08-30T10:44:16.678Z,7.70
2022-08-30T10:47:00.657Z,7.70
2022-08-30T10:49:40.447Z,8.40
2022-08-30T10:52:25.692Z,7.60
2022-08-30T10:55:05.956Z,8.90
2022-08-30T10:57:38.849Z,7.70
2022-08-30T11:00:23.945Z,6.90
2022-08-30T11:03:21.051Z,5.60
2022-08-30T11:06:16.740Z,6.70
2022-08-30T11:09:08.183Z,6.90
2022-08-30T11:12:01.034Z,6.50
2022-08-30T11:14:34.309Z,6.50
2022-08-30T11:17:06.612Z,7.10
2022-08-30T11:19:42.451Z,8.20
2022-08-30T11:22:23.011Z,6.60
2022-08-30T11:25:12.684Z,9.30
2022-08-30T11:27:51.392Z,8.70
2022-08-30T11:31:05.492Z,7.70
2022-08-30T11:33:49.600Z,7.30
2022-08-30T11:37:01.595Z,8.80
2022-08-30T11:39:55.023Z,7.40
2022-08-30T11:42:35.082Z,8.40
2022-08-30T11:45:40.635Z,7.40
2022-08-30T11:48:53.699Z,12.70
2022-08-30T11:52:23.837Z,9.10
2022-08-30T11:55:01.708Z,9.50
2022-08-30T11:57:46.659Z,7.90
2022-08-30T12:00:35.843Z,9.30
2022-08-30T12:03:28.676Z,7.80
2022-08-30T12:06:04.093Z,9.10
2022-08-30T12:09:02.274Z,7.30
2022-08-30T12:12:05.738Z,9.00
2022-08-30T12:14:52.076Z,6.80
2022-08-30T12:18:08.313Z,8.90
2022-08-30T12:20:50.439Z,7.50
2022-08-30T12:23:28.620Z,8.00
2022-08-30T12:26:15.966Z,8.60
2022-08-30T12:28:51.116Z,7.80
2022-08-30T12:31:27.035Z,7.20
2022-08-30T12:34:03.379Z,7.20
2022-08-30T12:36:38.991Z,7.90
2022-08-30T12:39:17.887Z,7.00
2022-08-30T12:41:50.202Z,9.50
2022-08-30T12:44:26.965Z,9.40
2022-08-30T12:47:03.295Z,7.40
2022-08-30T12:49:41.201Z,8.80
2022-08-30T12:52:24.452Z,8.00
2022-08-30T12:55:16.292Z,6.80
2022-08-30T12:58:03.015Z,7.40
2022-08-30T13:00:38.387Z,8.50
2022-08-30T13:03:31.406Z,7.30
2022-08-30T13:06:03.907Z,7.90
2022-08-30T13:08:38.564Z,7.50
2022-08-30T13:11:13.852Z,9.20
2022-08-30T13:13:52.344Z,6.80
2022-08-30T13:16:36.023Z,7.50
2022-08-30T13:19:29.530Z,6.80
2022-08-30T13:22:03.432Z,6.20
2022-08-30T13:24:35.886Z,7.10
2022-08-30T13:27:11.471Z,8.40
2022-08-30T13:29:43.654Z,6.30
2022-08-30T13:32:17.455Z,6.50
2022-08-30T13:34:49.722Z,8.00
2022-08-30T13:40:18.639Z,7.70
2022-08-30T13:42:51.613Z,8.00
2022-08-30T13:48:21.318Z,7.30
2022-08-30T13:50:57.214Z,7.00
2022-08-30T13:56:21.640Z,7.40
2022-08-30T13:58:53.966Z,7.80
2022-08-30T14:01:29.750Z,7.50
2022-08-30T14:04:17.580Z,7.10
2022-08-30T14:09:42.188Z,7.10
2022-08-30T14:12:14.621Z,8.10
2022-08-30T14:14:46.916Z,5.60
2022-08-30T14:17:19.416Z,7.80
2022-08-30T14:19:51.956Z,6.30
2022-08-30T14:22:25.978Z,7.40
2022-08-30T14:24:58.324Z,8.80
2022-08-30T14:27:30.894Z,8.20
2022-08-30T14:30:05.163Z,9.40
2022-08-30T14:32:37.338Z,9.80
2022-08-30T14:35:11.442Z,6.30
2022-08-30T14:37:43.651Z,6.80
2022-08-30T14:40:16.844Z,7.10
2022-08-30T14:42:49.136Z,7.60
2022-08-30T14:45:21.786Z,7.90
2022-08-30T14:47:55.179Z,7.50
2022-08-30T14:50:27.968Z,7.50
2022-08-30T14:53:00.302Z,8.70
2022-08-30T14:55:33.998Z,8.30
2022-08-30T14:58:07.086Z,8.90
2022-08-30T15:00:39.758Z,8.70
2022-08-30T15:03:12.733Z,9.80
2022-08-30T15:05:49.156Z,8.10
2022-08-30T15:08:25.120Z,9.50
2022-08-30T15:10:58.832Z,8.00
2022-08-30T15:13:31.049Z,10.30
2022-08-30T15:16:04.074Z,8.20
2022-08-30T15:18:36.255Z,8.70
2022-08-30T15:21:08.716Z,7.90
2022-08-30T15:23:41.670Z,9.00
2022-08-30T15:26:13.833Z,8.70
2022-08-30T15:28:47.191Z,7.40
2022-08-30T15:31:22.826Z,6.80
2022-08-30T15:33:55.428Z,7.10
2022-08-30T15:36:30.202Z,8.80
2022-08-30T15:39:02.636Z,8.30
2022-08-30T15:41:35.524Z,7.30
2022-08-30T15:44:10.199Z,7.90
2022-08-30T15:46:45.981Z,6.60
2022-08-30T15:49:20.179Z,8.70
2022-08-30T15:54:27.220Z,6.60
2022-08-30T15:57:00.276Z,7.20
2022-08-30T15:59:35.371Z,7.50
2022-08-30T16:02:07.922Z,8.60
2022-08-30T16:04:40.559Z,8.40
2022-08-30T16:07:13.814Z,8.90
2022-08-30T16:09:46.084Z,7.30
2022-08-30T16:12:23.631Z,11.30
2022-08-30T16:14:56.184Z,7.90
2022-08-30T16:17:28.640Z,10.00
2022-08-30T16:20:02.906Z,8.50
2022-08-30T16:22:35.052Z,8.10
2022-08-30T16:25:08.482Z,11.40
2022-08-30T16:27:43.154Z,12.40
2022-08-30T16:30:17.104Z,11.50
2022-08-30T16:32:49.908Z,10.90
2022-08-30T16:35:23.894Z,7.60
2022-08-30T16:37:56.188Z,9.00
2022-08-30T16:40:28.452Z,9.50
2022-08-30T16:43:00.633Z,10.20
2022-08-30T16:45:34.666Z,9.10
2022-08-30T16:48:07.398Z,8.40
2022-08-30T16:50:41.932Z,7.60
2022-08-30T16:53:15.234Z,8.90
2022-08-30T16:55:47.389Z,6.70
2022-08-30T16:58:22.256Z,7.00
2022-08-30T17:00:56.743Z,9.30
2022-08-30T17:03:29.079Z,8.90
2022-08-30T17:06:03.236Z,9.50
2022-08-30T17:08:36.119Z,8.50
2022-08-30T17:11:08.823Z,6.90
2022-08-30T17:13:41.960Z,9.50
2022-08-30T17:16:14.366Z,7.70
2022-08-30T17:18:46.705Z,9.20
2022-08-30T17:21:18.935Z,7.80
2022-08-30T17:23:51.401Z,9.90
2022-08-30T17:26:23.564Z,9.50
2022-08-30T17:28:58.199Z,8.40
2022-08-30T17:31:31.591Z,10.20
2022-08-30T17:34:05.932Z,9.10
2022-08-30T17:36:39.199Z,8.00
2022-08-30T17:39:12.007Z,9.40
2022-08-30T17:41:50.729Z,9.20
2022-08-30T17:44:28.654Z,9.80
2022-08-30T17:47:01.452Z,7.70
2022-08-30T17:49:34.644Z,8.50
2022-08-30T17:52:07.943Z,8.60
2022-08-30T17:54:43.739Z,9.00
2022-08-30T17:57:15.923Z,10.50
2022-08-30T17:59:48.774Z,8.80
2022-08-30T18:02:22.795Z,9.00
2022-08-30T18:05:03.331Z,10.60
2022-08-30T18:07:35.983Z,9.20
2022-08-30T18:10:10.374Z,8.00
2022-08-30T18:12:42.597Z,9.30
2022-08-30T18:15:15.572Z,8.40
2022-08-30T18:17:49.307Z,10.50
2022-08-30T18:20:22.329Z,8.80
2022-08-30T18:22:58.770Z,8.80
2022-08-30T18:25:31.059Z,8.90
2022-08-30T18:28:03.475Z,8.30
2022-08-30T18:30:41.581Z,8.10
2022-08-30T18:33:14.985Z,9.50
2022-08-30T18:35:51.031Z,10.40
2022-08-30T18:38:25.771Z,7.60
2022-08-30T18:41:03.153Z,7.80
2022-08-30T18:43:36.059Z,7.10
2022-08-30T18:46:10.389Z,7.40
2022-08-30T18:48:44.737Z,8.90
2022-08-30T18:51:19.902Z,8.80
2022-08-30T18:56:23.532Z,7.90
2022-08-30T18:59:00.955Z,8.30
2022-08-30T19:01:34.890Z,8.40
2022-08-30T19:04:09.084Z,9.00
2022-08-30T19:06:44.291Z,9.00
2022-08-30T19:09:16.935Z,9.00
2022-08-30T19:11:49.746Z,6.70
2022-08-30T19:14:24.738Z,7.30
2022-08-30T19:17:06.065Z,6.50
2022-08-30T19:19:48.718Z,5.20
2022-08-30T19:22:26.613Z,6.00
2022-08-30T19:25:00.931Z,6.00
2022-08-30T19:27:38.198Z,5.70
2022-08-30T19:30:21.578Z,4.70
2022-08-30T19:32:56.463Z,6.10
2022-08-30T19:35:30.186Z,5.00
2022-08-30T19:38:03.058Z,5.70
2022-08-30T19:40:35.364Z,6.00
2022-08-30T19:43:07.669Z,5.00
2022-08-30T19:45:40.235Z,4.50
2022-08-30T19:48:12.429Z,4.60
2022-08-30T19:50:45.632Z,6.00
2022-08-30T19:53:20.281Z,4.90
2022-08-30T19:55:54.286Z,6.20
2022-08-30T19:58:26.453Z,5.70
2022-08-30T20:01:12.148Z,5.00
2022-08-30T20:03:47.004Z,5.30
2022-08-30T20:06:19.680Z,5.90
2022-08-30T20:08:52.111Z,5.40
2022-08-30T20:11:29.182Z,7.40
2022-08-30T20:14:01.446Z,6.90
2022-08-30T20:16:37.704Z,6.70
2022-08-30T20:19:14.907Z,5.40
2022-08-30T20:21:47.262Z,6.80
2022-08-30T20:24:22.639Z,8.00
2022-08-30T20:26:54.806Z,8.50
2022-08-30T20:29:27.014Z,8.00
2022-08-30T20:31:59.189Z,9.20
2022-08-30T20:34:31.507Z,6.90
2022-08-30T20:37:03.817Z,7.70
2022-08-30T20:39:36.142Z,7.40
2022-08-30T20:42:09.076Z,6.60
2022-08-30T20:44:41.718Z,7.70
2022-08-30T20:47:14.332Z,8.20
2022-08-30T20:49:46.500Z,7.30
2022-08-30T20:52:18.871Z,6.80
2022-08-30T20:54:54.526Z,7.40
2022-08-30T20:57:27.076Z,5.30
2022-08-30T21:00:01.688Z,6.30
2022-08-30T21:02:34.413Z,6.30
2022-08-30T21:05:08.381Z,6.00
2022-08-30T21:07:41.409Z,6.00
2022-08-30T21:10:21.199Z,5.70
2022-08-30T21:12:56.396Z,4.60
2022-08-30T21:15:37.368Z,5.30
2022-08-30T21:18:10.585Z,4.90
2022-08-30T21:20:42.831Z,5.20
2022-08-30T21:23:15.036Z,5.50
2022-08-30T21:25:47.240Z,4.90
2022-08-30T21:28:19.946Z,5.10
2022-08-30T21:30:52.342Z,5.40
2022-08-30T21:33:24.539Z,5.50
2022-08-30T21:36:16.599Z,6.20
2022-08-30T21:38:48.716Z,5.20
2022-08-30T21:41:22.129Z,5.70
2022-08-30T21:44:01.235Z,5.10
2022-08-30T21:46:34.859Z,5.70
2022-08-30T21:49:09.839Z,6.90
2022-08-30T21:51:45.443Z,7.20
2022-08-30T21:54:19.393Z,5.90
2022-08-30T21:56:53.499Z,5.60
2022-08-30T21:59:26.137Z,5.30
2022-08-30T22:01:59.249Z,5.40
2022-08-30T22:04:31.748Z,5.70
2022-08-30T22:07:06.550Z,6.00
2022-08-30T22:09:39.292Z,5.60
2022-08-30T22:12:12.015Z,5.40
2022-08-30T22:14:44.224Z,5.80
2022-08-30T22:17:17.033Z,5.90
2022-08-30T22:19:49.263Z,5.00
2022-08-30T22:22:21.450Z,5.10
2022-08-30T22:24:53.631Z,7.00
2022-08-30T22:27:25.845Z,5.40
2022-08-30T22:29:58.074Z,5.60
2022-08-30T22:32:30.307Z,7.10
2022-08-30T22:35:02.507Z,6.40
2022-08-30T22:37:34.759Z,5.60
2022-08-30T22:40:07.831Z,7.20
2022-08-30T22:42:40.119Z,5.70
2022-08-30T22:45:20.671Z,6.30
2022-08-30T22:47:52.915Z,6.20
2022-08-30T22:50:25.501Z,6.60
2022-08-30T22:52:57.736Z,6.10
2022-08-30T22:55:30.514Z,6.40
2022-08-30T22:58:02.774Z,6.10
2022-08-30T23:00:35.377Z,6.10
2022-08-30T23:03:08.214Z,6.40
2022-08-30T23:05:40.675Z,6.90
2022-08-30T23:08:12.881Z,6.80
2022-08-30T23:10:45.896Z,6.30
2022-08-30T23:13:18.258Z,7.00
2022-08-30T23:15:50.676Z,6.60
2022-08-30T23:18:22.893Z,6.40
2022-08-30T23:20:55.087Z,8.20
2022-08-30T23:23:44.567Z,6.00
2022-08-30T23:26:36.460Z,8.80
2022-08-30T23:29:27.986Z,8.70
2022-08-30T23:32:18.360Z,7.30
2022-08-30T23:35:07.855Z,6.90
2022-08-30T23:37:57.728Z,6.00
2022-08-30T23:40:47.384Z,7.60
2022-08-30T23:43:37.001Z,7.10
2022-08-30T23:46:26.757Z,6.60
2022-08-30T23:49:16.778Z,7.60
2022-08-30T23:52:06.605Z,7.80
2022-08-30T23:54:57.428Z,7.30
2022-08-30T23:57:47.789Z,8.40
